createdAt,value
2023-02-04T00:01:02.590Z,99.90
2023-02-04T00:03:27.190Z,99.90
2023-02-04T00:05:51.701Z,99.90
2023-02-04T00:08:18.570Z,99.90
2023-02-04T00:10:43.156Z,99.90
2023-02-04T00:13:09.068Z,99.90
2023-02-04T00:15:33.536Z,99.90
2023-02-04T00:17:58.069Z,99.90
2023-02-04T00:20:22.546Z,99.90
2023-02-04T00:22:47.247Z,99.90
2023-02-04T00:25:11.800Z,99.90
2023-02-04T00:27:37.238Z,99.90
2023-02-04T00:30:03.536Z,99.70
2023-02-04T00:32:29.170Z,99.80
2023-02-04T00:34:53.985Z,99.60
2023-02-04T00:37:18.872Z,99.90
2023-02-04T00:39:43.407Z,99.80
2023-02-04T00:42:08.039Z,99.90
2023-02-04T00:44:33.930Z,99.40
2023-02-04T00:47:00.160Z,99.60
2023-02-04T00:49:24.701Z,99.10
2023-02-04T00:51:49.334Z,99.30
2023-02-04T00:54:16.250Z,99.30
2023-02-04T00:56:41.005Z,99.40
2023-02-04T00:59:05.707Z,99.50
2023-02-04T01:01:30.305Z,99.60
2023-02-04T01:03:56.446Z,99.90
2023-02-04T01:06:21.491Z,99.90
2023-02-04T01:08:46.024Z,99.90
2023-02-04T01:11:10.680Z,99.90
2023-02-04T01:13:35.289Z,99.90
2023-02-04T01:15:59.907Z,99.90
2023-02-04T01:18:24.449Z,99.90
2023-02-04T01:20:50.456Z,99.90
2023-02-04T01:23:14.968Z,99.90
2023-02-04T01:25:39.492Z,99.90
2023-02-04T01:28:04.591Z,99.90
2023-02-04T01:30:29.470Z,99.90
2023-02-04T01:32:54.133Z,99.90
2023-02-04T01:35:19.515Z,99.90
2023-02-04T01:37:45.453Z,99.90
2023-02-04T01:40:13.623Z,99.90
2023-02-04T01:42:38.396Z,99.90
2023-02-04T01:45:03.200Z,99.90
2023-02-04T01:47:29.407Z,99.90
2023-02-04T01:49:56.870Z,99.90
2023-02-04T01:52:21.888Z,99.90
2023-02-04T01:54:48.036Z,99.90
2023-02-04T01:57:17.053Z,99.90
2023-02-04T01:59:44.137Z,99.90
2023-02-04T02:02:40.873Z,99.90
2023-02-04T02:05:06.261Z,99.90
2023-02-04T02:07:31.823Z,99.90
2023-02-04T02:09:57.926Z,99.90
2023-02-04T02:12:22.559Z,99.90
2023-02-04T02:14:47.162Z,99.90
2023-02-04T02:17:12.654Z,99.90
2023-02-04T02:19:39.593Z,99.90
2023-02-04T02:22:08.252Z,99.90
2023-02-04T02:24:36.761Z,99.90
2023-02-04T02:27:04.853Z,99.90
2023-02-04T02:29:29.688Z,99.90
2023-02-04T02:31:57.554Z,99.90
2023-02-04T02:34:23.771Z,99.90
2023-02-04T02:36:48.386Z,99.90
2023-02-04T02:39:13.077Z,99.90
2023-02-04T02:41:40.124Z,99.90
2023-02-04T02:44:05.580Z,99.90
2023-02-04T02:46:30.253Z,99.90
2023-02-04T02:48:54.950Z,99.90
2023-02-04T02:51:20.408Z,99.90
2023-02-04T02:53:51.678Z,99.90
2023-02-04T02:56:16.489Z,99.90
2023-02-04T02:58:43.234Z,99.90
2023-02-04T03:01:10.351Z,99.90
2023-02-04T03:03:40.247Z,99.90
2023-02-04T03:06:09.210Z,99.90
2023-02-04T03:08:33.863Z,99.90
2023-02-04T03:10:58.443Z,99.90
2023-02-04T03:13:24.028Z,99.90
2023-02-04T03:15:50.919Z,99.90
2023-02-04T03:18:18.052Z,99.90
2023-02-04T03:20:43.068Z,99.90
2023-02-04T03:23:08.171Z,99.90
2023-02-04T03:25:33.382Z,99.90
2023-02-04T03:28:00.081Z,99.90
2023-02-04T03:30:25.458Z,99.90
2023-02-04T03:32:52.577Z,99.90
2023-02-04T03:35:17.514Z,99.90
2023-02-04T03:37:42.189Z,99.90
2023-02-04T03:40:07.590Z,99.90
2023-02-04T03:42:32.258Z,99.90
2023-02-04T03:44:56.698Z,99.90
2023-02-04T03:47:21.281Z,99.90
2023-02-04T03:49:47.224Z,99.90
2023-02-04T03:52:11.806Z,99.90
2023-02-04T03:54:36.285Z,99.90
2023-02-04T03:57:00.876Z,99.90
2023-02-04T03:59:25.327Z,99.90
2023-02-04T04:01:49.913Z,99.90
2023-02-04T04:04:14.439Z,99.90
2023-02-04T04:06:40.450Z,99.90
2023-02-04T04:09:06.046Z,99.90
2023-02-04T04:11:30.598Z,99.90
2023-02-04T04:13:55.488Z,99.90
2023-02-04T04:16:20.930Z,99.90
2023-02-04T04:18:45.432Z,99.90
2023-02-04T04:21:10.036Z,99.90
2023-02-04T04:23:36.586Z,99.90
2023-02-04T04:26:01.354Z,99.90
2023-02-04T04:28:25.875Z,99.90
2023-02-04T04:30:50.398Z,99.90
2023-02-04T04:33:14.822Z,99.90
2023-02-04T04:35:39.410Z,99.90
2023-02-04T04:38:04.125Z,99.90
2023-02-04T04:40:30.329Z,99.90
2023-02-04T04:42:55.023Z,99.90
2023-02-04T04:45:22.460Z,99.90
2023-02-04T04:47:47.117Z,99.90
2023-02-04T04:50:11.950Z,99.90
2023-02-04T04:52:36.464Z,99.90
2023-02-04T04:55:01.134Z,99.90
2023-02-04T04:57:27.510Z,99.90
2023-02-04T04:59:52.066Z,99.90
2023-02-04T05:02:16.705Z,99.90
2023-02-04T05:04:41.214Z,99.90
2023-02-04T05:07:05.767Z,99.90
2023-02-04T05:09:31.076Z,99.90
2023-02-04T05:11:55.619Z,99.90
2023-02-04T05:14:21.602Z,99.90
2023-02-04T05:16:46.305Z,99.90
2023-02-04T05:19:10.738Z,99.90
2023-02-04T05:21:35.159Z,99.90
2023-02-04T05:23:59.662Z,99.90
2023-02-04T05:26:30.272Z,99.90
2023-02-04T05:28:56.048Z,99.90
2023-02-04T05:31:22.082Z,99.90
2023-02-04T05:33:46.809Z,99.90
2023-02-04T05:36:11.355Z,99.90
2023-02-04T05:38:35.957Z,99.90
2023-02-04T05:41:00.490Z,99.90
2023-02-04T05:43:25.062Z,99.90
2023-02-04T05:45:49.669Z,99.90
2023-02-04T05:48:15.673Z,99.90
2023-02-04T05:50:40.145Z,99.90
2023-02-04T05:53:07.700Z,99.90
2023-02-04T05:55:33.395Z,99.90
2023-02-04T05:57:58.030Z,99.90
2023-02-04T06:00:23.084Z,99.90
2023-02-04T06:02:47.650Z,99.90
2023-02-04T06:05:13.557Z,99.90
2023-02-04T06:07:38.104Z,99.90
2023-02-04T06:10:02.617Z,99.90
2023-02-04T06:12:27.730Z,99.90
2023-02-04T06:14:52.479Z,99.90
2023-02-04T06:17:17.209Z,99.90
2023-02-04T06:19:41.665Z,99.90
2023-02-04T06:22:07.639Z,99.90
2023-02-04T06:24:33.692Z,99.90
2023-02-04T06:26:58.814Z,99.90
2023-02-04T06:29:23.309Z,99.90
2023-02-04T06:31:49.564Z,99.90
2023-02-04T06:34:14.244Z,99.90
2023-02-04T06:36:38.752Z,99.90
2023-02-04T06:39:04.876Z,99.90
2023-02-04T06:41:29.526Z,99.90
2023-02-04T06:43:54.787Z,99.90
2023-02-04T06:46:19.517Z,99.90
2023-02-04T06:48:45.577Z,99.90
2023-02-04T06:51:10.028Z,99.90
2023-02-04T06:53:34.477Z,99.90
2023-02-04T06:56:00.296Z,99.90
2023-02-04T06:58:24.667Z,99.90
2023-02-04T07:00:49.172Z,99.90
2023-02-04T07:03:13.650Z,99.90
2023-02-04T07:05:38.135Z,99.90
2023-02-04T07:08:02.844Z,99.90
2023-02-04T07:10:27.315Z,99.90
2023-02-04T07:12:53.138Z,99.90
2023-02-04T07:15:18.291Z,99.90
2023-02-04T07:17:42.905Z,99.90
2023-02-04T07:20:08.090Z,99.90
2023-02-04T07:22:32.613Z,99.90
2023-02-04T07:24:56.964Z,99.90
2023-02-04T07:27:21.346Z,99.90
2023-02-04T07:29:47.232Z,99.90
2023-02-04T07:32:11.795Z,99.90
2023-02-04T07:34:36.470Z,99.90
2023-02-04T07:37:00.974Z,99.90
2023-02-04T07:39:25.376Z,99.90
2023-02-04T07:41:49.762Z,99.90
2023-02-04T07:44:20.482Z,99.90
2023-02-04T07:46:46.288Z,99.90
2023-02-04T07:49:10.674Z,99.90
2023-02-04T07:51:35.143Z,99.90
2023-02-04T07:53:59.584Z,99.90
2023-02-04T07:56:24.260Z,99.90
2023-02-04T07:58:48.695Z,99.90
2023-02-04T08:01:13.054Z,99.90
2023-02-04T08:03:40.917Z,99.90
2023-02-04T08:06:06.475Z,99.90
2023-02-04T08:08:30.987Z,99.90
2023-02-04T08:10:55.435Z,99.90
2023-02-04T08:13:20.891Z,99.90
2023-02-04T08:15:45.659Z,99.90
2023-02-04T08:18:11.285Z,99.90
2023-02-04T08:20:37.170Z,99.90
2023-02-04T08:23:01.761Z,99.90
2023-02-04T08:25:26.721Z,99.90
2023-02-04T08:27:51.509Z,99.90
2023-02-04T08:30:16.631Z,99.90
2023-02-04T08:32:41.341Z,99.90
2023-02-04T08:35:06.579Z,99.90
2023-02-04T08:37:33.124Z,99.90
2023-02-04T08:39:58.058Z,99.90
2023-02-04T08:42:22.635Z,99.90
2023-02-04T08:44:47.409Z,99.90
2023-02-04T08:47:12.221Z,99.90
2023-02-04T08:49:36.954Z,99.90
2023-02-04T08:52:03.036Z,99.90
2023-02-04T08:54:29.001Z,99.90
2023-02-04T08:56:53.623Z,99.90
2023-02-04T08:59:18.474Z,99.90
2023-02-04T09:01:43.157Z,99.90
2023-02-04T09:04:07.757Z,99.90
2023-02-04T09:06:32.705Z,99.90
2023-02-04T09:08:57.370Z,99.90
2023-02-04T09:11:23.845Z,99.90
2023-02-04T09:13:48.628Z,99.90
2023-02-04T09:16:13.299Z,99.90
2023-02-04T09:18:37.772Z,99.90
2023-02-04T09:21:02.319Z,99.90
2023-02-04T09:23:26.894Z,99.90
2023-02-04T09:25:52.412Z,99.90
2023-02-04T09:28:19.314Z,99.90
2023-02-04T09:30:45.490Z,98.90
2023-02-04T09:33:10.957Z,99.10
2023-02-04T09:35:35.429Z,97.80
2023-02-04T09:37:59.981Z,97.50
2023-02-04T09:40:25.802Z,96.70
2023-02-04T09:42:51.818Z,96.40
2023-02-04T09:45:20.648Z,96.00
2023-02-04T09:47:45.367Z,95.40
2023-02-04T09:50:15.110Z,95.80
2023-02-04T09:52:40.625Z,94.10
2023-02-04T09:55:07.206Z,94.20
2023-02-04T09:57:31.885Z,93.20
2023-02-04T09:59:56.575Z,93.80
2023-02-04T10:02:27.410Z,93.30
2023-02-04T10:04:54.073Z,92.90
2023-02-04T10:07:22.544Z,93.30
2023-02-04T10:09:48.857Z,93.20
2023-02-04T10:12:13.420Z,93.90
2023-02-04T10:14:38.046Z,94.50
2023-02-04T10:17:03.158Z,94.60
2023-02-04T10:19:32.088Z,94.30
2023-02-04T10:21:57.049Z,94.40
2023-02-04T10:24:26.449Z,94.70
2023-02-04T10:26:51.189Z,94.50
2023-02-04T10:29:18.244Z,94.90
2023-02-04T10:31:44.374Z,94.50
2023-02-04T10:34:12.926Z,95.10
2023-02-04T10:36:39.181Z,94.80
2023-02-04T10:39:05.150Z,95.80
2023-02-04T10:41:30.047Z,96.00
2023-02-04T10:44:04.465Z,96.00
2023-02-04T10:46:32.194Z,95.70
2023-02-04T10:48:56.773Z,95.50
2023-02-04T10:51:21.474Z,95.60
2023-02-04T10:54:01.157Z,94.70
2023-02-04T10:56:25.870Z,94.70
2023-02-04T10:58:51.262Z,94.80
2023-02-04T11:01:18.532Z,93.80
2023-02-04T11:03:45.327Z,94.20
2023-02-04T11:06:15.997Z,94.80
2023-02-04T11:08:41.895Z,93.40
2023-02-04T11:11:10.576Z,93.30
2023-02-04T11:13:45.664Z,93.60
2023-02-04T11:16:14.228Z,93.90
2023-02-04T11:18:51.495Z,94.60
2023-02-04T11:21:23.058Z,93.80
2023-02-04T11:23:47.583Z,93.90
2023-02-04T11:26:19.272Z,93.50
2023-02-04T11:28:52.884Z,94.10
2023-02-04T11:31:31.600Z,94.00
2023-02-04T11:34:11.838Z,94.70
2023-02-04T11:36:36.369Z,94.80
2023-02-04T11:39:09.592Z,94.30
2023-02-04T11:41:35.902Z,94.60
2023-02-04T11:44:00.591Z,95.10
2023-02-04T11:46:27.659Z,95.40
2023-02-04T11:48:54.918Z,94.40
2023-02-04T11:51:21.950Z,94.60
2023-02-04T11:53:51.785Z,94.10
2023-02-04T11:56:18.558Z,94.10
2023-02-04T11:58:44.362Z,94.20
2023-02-04T12:01:19.231Z,94.40
2023-02-04T12:03:48.764Z,95.00
2023-02-04T12:06:22.931Z,95.10
2023-02-04T12:08:47.442Z,95.10
2023-02-04T12:11:15.730Z,95.20
2023-02-04T12:13:52.291Z,95.20
2023-02-04T12:16:17.141Z,95.00
2023-02-04T12:18:41.912Z,95.10
2023-02-04T12:21:06.881Z,95.80
2023-02-04T12:23:31.659Z,95.90
2023-02-04T12:25:56.462Z,95.90
2023-02-04T12:28:21.342Z,95.90
2023-02-04T12:30:47.701Z,96.20
2023-02-04T12:33:14.882Z,96.50
2023-02-04T12:35:39.811Z,96.70
2023-02-04T12:38:04.651Z,97.20
2023-02-04T12:40:29.262Z,97.20
2023-02-04T12:42:53.737Z,97.50
2023-02-04T12:45:19.495Z,97.50
2023-02-04T12:47:46.223Z,97.80
2023-02-04T12:50:13.142Z,98.00
2023-02-04T12:52:39.319Z,97.90
2023-02-04T12:55:05.125Z,97.70
2023-02-04T12:57:29.631Z,98.00
2023-02-04T12:59:59.693Z,98.30
2023-02-04T13:02:25.362Z,98.20
2023-02-04T13:04:51.369Z,98.20
2023-02-04T13:07:16.393Z,98.40
2023-02-04T13:09:41.340Z,98.90
2023-02-04T13:12:05.986Z,99.40
2023-02-04T13:14:30.419Z,99.60
2023-02-04T13:16:54.980Z,99.70
2023-02-04T13:19:19.694Z,99.90
2023-02-04T13:21:45.638Z,99.90
2023-02-04T13:24:10.090Z,99.90
2023-02-04T13:26:34.647Z,99.90
2023-02-04T13:28:58.954Z,99.90
2023-02-04T13:31:23.770Z,99.90
2023-02-04T13:33:48.216Z,99.90
2023-02-04T13:36:12.739Z,99.90
2023-02-04T13:38:38.700Z,99.90
2023-02-04T13:41:03.185Z,99.90
2023-02-04T13:43:28.051Z,99.90
2023-02-04T13:45:53.091Z,99.90
2023-02-04T13:48:17.968Z,99.90
2023-02-04T13:50:42.798Z,99.90
2023-02-04T13:53:08.535Z,99.90
2023-02-04T13:55:34.831Z,99.90
2023-02-04T13:57:59.417Z,99.90
2023-02-04T14:00:24.257Z,99.90
2023-02-04T14:02:49.035Z,99.90
2023-02-04T14:05:13.633Z,99.90
2023-02-04T14:07:38.113Z,99.90
2023-02-04T14:10:02.686Z,99.90
2023-02-04T14:12:29.442Z,99.90
2023-02-04T14:14:53.882Z,99.90
2023-02-04T14:17:18.325Z,99.90
2023-02-04T14:19:43.108Z,99.90
2023-02-04T14:22:07.923Z,99.90
2023-02-04T14:24:32.454Z,99.90
2023-02-04T14:26:57.502Z,99.90
2023-02-04T14:29:23.601Z,99.90
2023-02-04T14:31:48.182Z,99.90
2023-02-04T14:34:13.385Z,99.90
2023-02-04T14:36:37.886Z,99.90
2023-02-04T14:39:02.961Z,99.90
2023-02-04T14:41:30.220Z,99.90
2023-02-04T14:43:54.917Z,99.90
2023-02-04T14:46:21.219Z,99.90
2023-02-04T14:48:46.194Z,99.90
2023-02-04T14:51:10.616Z,99.90
2023-02-04T14:53:35.048Z,99.90
2023-02-04T14:55:59.545Z,99.90
2023-02-04T14:58:25.325Z,99.90
2023-02-04T15:00:51.380Z,99.90
2023-02-04T15:03:17.433Z,99.90
2023-02-04T15:05:41.906Z,99.90
2023-02-04T15:08:06.619Z,99.90
2023-02-04T15:10:31.360Z,99.90
2023-02-04T15:12:56.431Z,99.90
2023-02-04T15:15:21.034Z,99.90
2023-02-04T15:17:46.083Z,99.90
2023-02-04T15:20:12.643Z,99.90
2023-02-04T15:22:56.521Z,99.90
2023-02-04T15:25:39.907Z,99.90
2023-02-04T15:28:23.079Z,99.90
2023-02-04T15:31:06.514Z,99.90
2023-02-04T15:33:49.567Z,99.90
2023-02-04T15:36:34.217Z,99.90
2023-02-04T15:39:17.402Z,99.90
2023-02-04T15:42:00.260Z,99.90
2023-02-04T15:44:43.667Z,99.90
2023-02-04T15:47:08.380Z,99.90
2023-02-04T15:49:32.950Z,99.90
2023-02-04T15:51:59.876Z,99.90
2023-02-04T15:54:24.408Z,99.90
2023-02-04T15:56:49.198Z,99.90
2023-02-04T15:59:15.753Z,99.90
2023-02-04T16:01:40.352Z,99.90
2023-02-04T16:04:05.021Z,99.90
2023-02-04T16:06:30.139Z,99.90
2023-02-04T16:08:56.013Z,99.90
2023-02-04T16:11:20.584Z,99.90
2023-02-04T16:13:45.362Z,99.90
2023-02-04T16:16:10.033Z,99.90
2023-02-04T16:18:34.529Z,99.90
2023-02-04T16:20:59.297Z,99.90
2023-02-04T16:23:23.803Z,99.90
2023-02-04T16:25:49.810Z,99.90
2023-02-04T16:28:14.470Z,99.90
2023-02-04T16:30:39.449Z,99.90
2023-02-04T16:33:04.018Z,99.90
2023-02-04T16:35:33.949Z,99.90
2023-02-04T16:37:58.660Z,99.90
2023-02-04T16:40:24.227Z,99.90
2023-02-04T16:42:50.228Z,99.90
2023-02-04T16:45:16.562Z,99.90
2023-02-04T16:47:41.417Z,99.90
2023-02-04T16:50:06.715Z,99.90
2023-02-04T16:52:31.892Z,99.90
2023-02-04T16:54:56.657Z,99.90
2023-02-04T16:57:21.365Z,99.90
2023-02-04T16:59:47.312Z,99.90
2023-02-04T17:02:12.860Z,99.90
2023-02-04T17:04:37.339Z,99.90
2023-02-04T17:07:02.346Z,99.90
2023-02-04T17:09:27.389Z,99.90
2023-02-04T17:11:52.326Z,99.90
2023-02-04T17:14:17.345Z,99.90
2023-02-04T17:16:44.256Z,99.90
2023-02-04T17:19:08.867Z,99.90
2023-02-04T17:21:33.931Z,99.90
2023-02-04T17:24:04.305Z,99.90
2023-02-04T17:26:29.370Z,99.90
2023-02-04T17:28:54.084Z,99.90
2023-02-04T17:31:19.017Z,99.90
2023-02-04T17:33:47.410Z,99.90
2023-02-04T17:36:13.916Z,99.90
2023-02-04T17:38:39.944Z,99.90
2023-02-04T17:41:05.012Z,99.90
2023-02-04T17:43:29.925Z,99.90
2023-02-04T17:45:55.614Z,99.90
2023-02-04T17:48:20.524Z,99.90
2023-02-04T17:50:46.974Z,99.90
2023-02-04T17:53:12.628Z,99.90
2023-02-04T17:55:39.648Z,99.90
2023-02-04T17:58:14.812Z,99.90
2023-02-04T18:00:39.663Z,99.90
2023-02-04T18:03:04.740Z,99.90
2023-02-04T18:05:31.098Z,99.90
2023-02-04T18:08:01.818Z,99.90
2023-02-04T18:10:33.017Z,99.90
2023-02-04T18:12:59.289Z,99.90
2023-02-04T18:15:30.491Z,99.90
2023-02-04T18:18:00.400Z,99.90
2023-02-04T18:20:25.055Z,99.90
2023-02-04T18:22:54.793Z,99.90
2023-02-04T18:25:24.125Z,99.90
2023-02-04T18:27:48.820Z,99.90
2023-02-04T18:30:21.468Z,99.90
2023-02-04T18:32:46.181Z,99.90
2023-02-04T18:35:37.704Z,99.90
2023-02-04T18:38:02.602Z,99.90
2023-02-04T18:40:30.690Z,99.90
2023-02-04T18:43:06.608Z,99.90
2023-02-04T18:45:33.062Z,99.90
2023-02-04T18:47:59.221Z,99.90
2023-02-04T18:50:30.132Z,99.90
2023-02-04T18:52:55.294Z,99.90
2023-02-04T18:55:25.840Z,99.90
2023-02-04T18:57:52.454Z,99.90
2023-02-04T19:00:27.837Z,99.90
2023-02-04T19:02:56.030Z,99.90
2023-02-04T19:05:34.647Z,99.90
2023-02-04T19:08:27.711Z,99.90
2023-02-04T19:10:53.990Z,99.90
2023-02-04T19:13:23.038Z,99.90
2023-02-04T19:15:55.772Z,99.90
2023-02-04T19:18:26.669Z,99.90
2023-02-04T19:20:52.067Z,99.90
2023-02-04T19:23:20.163Z,99.90
2023-02-04T19:25:47.391Z,99.90
2023-02-04T19:28:28.934Z,99.90
2023-02-04T19:31:04.124Z,99.90
2023-02-04T19:33:32.765Z,99.90
2023-02-04T19:35:57.406Z,99.90
2023-02-04T19:38:38.803Z,99.90
2023-02-04T19:41:03.932Z,99.90
2023-02-04T19:43:38.311Z,99.90
2023-02-04T19:46:18.427Z,99.90
2023-02-04T19:48:44.972Z,99.90
2023-02-04T19:51:25.688Z,99.90
2023-02-04T19:53:52.270Z,99.90
2023-02-04T19:56:30.611Z,99.90
2023-02-04T19:58:58.182Z,99.90
2023-02-04T20:01:23.146Z,99.90
2023-02-04T20:03:49.042Z,99.90
2023-02-04T20:06:27.791Z,99.90
2023-02-04T20:08:56.644Z,99.90
2023-02-04T20:11:53.573Z,99.90
2023-02-04T20:14:57.169Z,99.90
2023-02-04T20:17:39.040Z,99.90
2023-02-04T20:20:20.862Z,99.90
2023-02-04T20:22:51.344Z,99.90
2023-02-04T20:25:45.412Z,99.90
2023-02-04T20:28:40.021Z,99.90
2023-02-04T20:31:19.766Z,99.90
2023-02-04T20:33:49.126Z,99.90
2023-02-04T20:36:30.330Z,99.90
2023-02-04T20:39:03.798Z,99.90
2023-02-04T20:41:28.391Z,99.90
2023-02-04T20:43:53.137Z,99.90
2023-02-04T20:46:22.917Z,99.90
2023-02-04T20:48:48.688Z,99.90
2023-02-04T20:51:23.048Z,99.90
2023-02-04T20:53:50.322Z,99.90
2023-02-04T20:56:24.350Z,99.90
2023-02-04T20:58:50.208Z,99.90
2023-02-04T21:01:25.430Z,99.90
2023-02-04T21:03:51.343Z,99.90
2023-02-04T21:06:24.125Z,99.90
2023-02-04T21:08:51.395Z,99.90
2023-02-04T21:11:16.257Z,99.90
2023-02-04T21:13:41.091Z,99.90
2023-02-04T21:16:06.661Z,99.90
2023-02-04T21:18:34.906Z,99.90
2023-02-04T21:20:59.447Z,99.90
2023-02-04T21:23:24.651Z,99.90
2023-02-04T21:25:50.040Z,99.90
2023-02-04T21:28:14.860Z,99.90
2023-02-04T21:30:39.543Z,99.90
2023-02-04T21:33:04.157Z,99.90
2023-02-04T21:35:30.252Z,99.90
2023-02-04T21:37:55.454Z,99.90
2023-02-04T21:40:22.101Z,99.90
2023-02-04T21:42:46.654Z,99.90
2023-02-04T21:45:11.659Z,99.90
2023-02-04T21:47:36.134Z,99.90
2023-02-04T21:50:00.558Z,99.90
2023-02-04T21:52:26.630Z,99.90
2023-02-04T21:54:51.206Z,99.90
2023-02-04T21:57:16.488Z,99.90
2023-02-04T21:59:43.147Z,99.90
2023-02-04T22:02:07.972Z,99.90
2023-02-04T22:04:32.602Z,99.90
2023-02-04T22:06:57.226Z,99.90
2023-02-04T22:09:23.406Z,99.90
2023-02-04T22:11:48.731Z,99.90
2023-02-04T22:14:30.520Z,99.90
2023-02-04T22:16:55.068Z,99.90
2023-02-04T22:19:19.760Z,99.90
2023-02-04T22:21:44.321Z,99.90
2023-02-04T22:24:08.831Z,99.90
2023-02-04T22:26:35.047Z,99.90
2023-02-04T22:28:59.716Z,99.90
2023-02-04T22:31:24.746Z,99.90
2023-02-04T22:33:49.690Z,99.90
2023-02-04T22:36:14.265Z,99.90
2023-02-04T22:38:39.196Z,99.90
2023-02-04T22:41:03.664Z,99.90
2023-02-04T22:43:30.038Z,99.90
2023-02-04T22:45:54.733Z,99.90
2023-02-04T22:48:19.199Z,99.90
2023-02-04T22:50:44.290Z,99.90
2023-02-04T22:53:08.778Z,99.90
2023-02-04T22:55:33.922Z,99.90
2023-02-04T22:57:58.613Z,99.90
2023-02-04T23:00:24.928Z,99.90
2023-02-04T23:02:49.870Z,99.90
2023-02-04T23:05:14.385Z,99.90
2023-02-04T23:07:39.045Z,99.90
2023-02-04T23:10:03.664Z,99.90
2023-02-04T23:12:28.089Z,99.90
2023-02-04T23:14:52.783Z,99.90
2023-02-04T23:17:19.627Z,99.90
2023-02-04T23:19:44.380Z,99.90
2023-02-04T23:22:10.649Z,99.90
2023-02-04T23:24:35.726Z,99.90
2023-02-04T23:27:00.972Z,99.90
2023-02-04T23:29:25.582Z,99.90
2023-02-04T23:31:50.125Z,99.90
2023-02-04T23:34:16.034Z,99.90
2023-02-04T23:36:40.598Z,99.90
2023-02-04T23:39:05.332Z,99.90
2023-02-04T23:41:29.873Z,99.90
2023-02-04T23:43:54.361Z,99.90
2023-02-04T23:46:18.949Z,99.90
2023-02-04T23:48:43.542Z,99.90
2023-02-04T23:51:09.512Z,99.90
2023-02-04T23:53:34.096Z,99.90
2023-02-04T23:55:58.550Z,99.90
2023-02-04T23:58:23.036Z,99.90
